NWS Home NWS Lubbock West Texas Mesonet North Sector Latest Conditions as of 1031 AM, Tue Jul 17, 2018

Latest   N   C   S   Daily Sum   3hrΔ   24hrΔ   Soil Data 
Site Map   24hr Precip   72hr Precip   Google Plot


Station Time of Last Temp Dew Pt. RH Wind Direction Wind Speed Wind Gust Max Wind Max Temp Min Temp Max RH Min RH Altimeter 1HR Rain Today's Rain Solar Rad
Adrian 6WSW  10:25 AM 85 57 38% W67 20 mph 198° @ 0305 AM 85 69 67 38 30.22" 0 0.00 614
Aiken 3WSW  10:25 AM 88 61 40% SW1415 19 mph 239° @ 1013 AM 88 66 82 39 30.18" 0 0.00 676
Amarillo 15NNW   10:25 AM 87 61 41% SW911 16 mph 171° @ 0115 AM 88 69 90 41 30.14" 0 0.00 605
Amarillo 7SSE  10:25 AM 85 62 46% W78 12 mph 245° @ 0903 AM 85 65 92 46 30.18" 0 0.00 638
Amarillo 9NNE  10:25 AM 88 61 40% SW68 12 mph 226° @ 1016 AM 88 69 80 40 30.14" 0 0.00 561
Amherst 1NE  10:25 AM 83 59 47% SW812 12 mph 216° @ 0730 AM 83 69 86 47 30.19" 0 0.00 603
Bootleg 11WNW  10:25 AM 87 57 36% SW911 15 mph 256° @ 1011 AM 87 65 76 36 30.24" 0 0.00 591
Boys Ranch 1WSW  10:25 AM 86 62 45% N34 8 mph 348° @ 0400 AM 86 69 92 44 30.14" 0 0.00 619
Canadian 6E  10:25 AM 88 65 46% S33 11 mph 83° @ 0119 AM 88 70 89 46 30.06" 0 0.00 656
Caprock Canyons State Park  10:25 AM 91 57 32% SW1924 29 mph 236° @ 0631 AM 91 75 64 31 30.11" 0 0.00 585
Childress 2NNE  10:25 AM 92 58 34% SW1420 20 mph 234° @ 1025 AM 92 75 66 34 30.07" 0 0.00 642
Clarendon 2WSW  10:25 AM 89 58 36% W811 13 mph 243° @ 1010 AM 89 68 85 36 30.12" 0 0.00 592
Claude 12SW  10:25 AM 84 62 48% SW67 14 mph 233° @ 0750 AM 84 75 64 48 30.16" 0 0.00 640
Dimmitt 2NE  10:25 AM 85 57 40% SW1215 16 mph 235° @ 1015 AM 85 70 74 40 30.19" 0 0.00 632
Dozier 3W  10:25 AM 92 64 40% SW79 10 mph 249° @ 0948 AM 92 72 75 40 30.09" 0 0.00 646
Earth 9WSW  10:25 AM 86 61 43% SW1113 16 mph 202° @ 0736 AM 86 65 84 42 30.20" 0 0.00 629
Endee NM 2SW  10:25 AM 85 58 40% S46 17 mph 224° @ 0238 AM 85 64 84 39 30.19" 0 0.00 612
Estelline 3SSE  10:25 AM 94 61 34% SW710 20 mph 237° @ 0948 AM 94 70 82 34 30.06" 0 0.00 667
Floydada 2NNE  10:25 AM 87 58 38% SW1419 22 mph 222° @ 0950 AM 88 70 66 38 30.16" 0 0.00 640
Friona 2NE  10:25 AM 85 59 42% SW1215 16 mph 230° @ 1020 AM 85 66 87 42 30.20" 0 0.00 664
Fritch 1WNW  10:25 AM 86 63 46% SW710 15 mph 218° @ 0948 AM 86 71 84 44 30.14" 0 0.00 697
Goodlett 3W  10:25 AM 92 58 32% SW1316 18 mph 243° @ 1020 AM 92 73 66 32 30.05" 0 0.00 571
Goodnight  10:25 AM 90 61 38% W78 14 mph 252° @ 0909 AM 90 70 79 37 30.15" 0 0.00 627
Happy 1E  10:25 AM 87 59 38% W1113 15 mph 233° @ 0903 AM 88 67 79 38 30.18" 0 0.00 645
Hart 3N  10:25 AM 85 60 44% SW811 12 mph 210° @ 1015 AM 85 66 84 44 30.19" 0 0.00 639
Hereford 2NW  10:25 AM 85 55 38% W811 13 mph 179° @ 1210 AM 85 67 77 38 30.19" 0 0.00 642
Lesley 2S  10:25 AM 89 65 45% W68 10 mph 293° @ 1005 AM 89 71 95 45 30.08" 0 0.00 664
McLean 1E  10:25 AM 91 55 31% W812 14 mph 265° @ 1020 AM 91 72 66 31 30.10" 0 0.00 726
Memphis 1NE  10:25 AM 89 61 40% SW914 15 mph 239° @ 1020 AM 89 71 90 40 30.07" 0 0.00 609
Muleshoe 2SSW  10:25 AM 82 64 58% SW14 13 mph 143° @ 0135 AM 82 65 92 58 30.19" 0 0.00 628
Northfield 1S  10:25 AM 92 59 34% SW1318 18 mph 240° @ 1025 AM 92 70 86 34 30.07" 0 0.00 585
Odell 4ENE  10:25 AM 94 59 32% SW1518 22 mph 249° @ 0955 AM 94 76 68 32 30.04" 0 0.00 553
Olton 6S  10:25 AM 84 59 44% SW1215 16 mph 212° @ 1005 AM 84 67 75 44 30.18" 0 0.00 596
Palo Duro 4E (JA Ranch)  10:25 AM 89 62 41% SW78 13 mph 251° @ 0954 AM 89 68 92 40 30.11" 0 0.00 632
Palo Duro Canyon SP Floor  10:25 AM 86 66 51% NE12 9 mph 349° @ 0746 AM 86 68 98 50 30.12" 0 0.00 592
Palo Duro Canyon State Park Rim  10:25 AM 86 64 47% SW45 12 mph 192° @ 0541 AM 86 71 74 47 30.18" 0 0.00 633
Pampa 2E  10:25 AM 86 65 51% SW68 10 mph 250° @ 0930 AM 86 67 91 51 30.14" 0 0.00 648
Panhandle 1SSW  10:25 AM 84 65 53% SW68 11 mph 250° @ 1010 AM 84 68 92 52 30.17" 0 0.00 642
Plainview 1S  09:55 AM 83 61 49% SW1117 18 mph 233° @ 0915 AM 83 70 77 49 30.16" 0 0.00 505
Silverton 7ESE  10:25 AM 90 57 35% SW1620 23 mph 245° @ 1010 AM 90 67 75 35 30.15" 0 0.00 645
Stinnett 1NNW  10:25 AM 84 62 47% SW1112 17 mph 199° @ 1023 AM 87 70 76 44 30.15" 0 0.00 284
Tulia 2ENE  10:25 AM 87 59 39% SW1115 18 mph 232° @ 0815 AM 87 71 70 39 30.17" 0 0.00 565
Turkey 2WSW  10:25 AM 93 58 32% SW1722 25 mph 216° @ 0925 AM 93 76 64 32 30.09" 0 0.00 583
Umbarger 3NNE  10:25 AM 87 60 41% W1012 15 mph 268° @ 1020 AM 87 66 83 41 30.19" 0 0.00 638
Vigo Park  10:25 AM 89 59 37% SW1011 15 mph 234° @ 0842 AM 89 66 85 36 30.17" 0 0.00 590

West Texas Mesonet Home   Site Map/Menu  NWS Lubbock Soil Data  Daily Summary Page  24hr Precip  72hr Precip  Google Plot